createdAt,value
2023-04-25T00:00:28.411Z,45.70
2023-04-25T00:02:58.241Z,45.70
2023-04-25T00:05:26.924Z,45.70
2023-04-25T00:07:55.441Z,45.60
2023-04-25T00:10:23.718Z,45.60
2023-04-25T00:12:53.226Z,45.60
2023-04-25T00:15:21.623Z,45.60
2023-04-25T00:17:49.782Z,45.40
2023-04-25T00:20:18.100Z,45.50
2023-04-25T00:22:46.389Z,45.50
2023-04-25T00:25:14.506Z,45.20
2023-04-25T00:27:42.893Z,45.40
2023-04-25T00:30:14.097Z,45.40
2023-04-25T00:32:42.203Z,45.50
2023-04-25T00:35:11.357Z,45.30
2023-04-25T00:37:39.575Z,45.30
2023-04-25T00:40:08.956Z,45.30
2023-04-25T00:42:38.799Z,45.20
2023-04-25T00:45:09.366Z,45.20
2023-04-25T00:47:40.026Z,45.20
2023-04-25T00:50:09.681Z,45.10
2023-04-25T00:52:38.426Z,45.10
2023-04-25T00:55:07.445Z,45.20
2023-04-25T00:57:36.289Z,45.20
2023-04-25T01:00:07.546Z,45.00
2023-04-25T01:02:36.681Z,45.10
2023-04-25T01:05:06.897Z,45.10
2023-04-25T01:07:35.994Z,45.10
2023-04-25T01:10:04.945Z,45.10
2023-04-25T01:12:33.104Z,45.70
2023-04-25T01:15:01.219Z,45.10
2023-04-25T01:17:30.221Z,45.10
2023-04-25T01:19:58.547Z,45.00
2023-04-25T01:22:28.076Z,45.00
2023-04-25T01:24:56.388Z,44.90
2023-04-25T01:27:24.863Z,44.90
2023-04-25T01:29:54.061Z,44.90
2023-04-25T01:32:22.863Z,44.90
2023-04-25T01:34:51.147Z,44.90
2023-04-25T01:37:19.753Z,44.80
2023-04-25T01:39:49.787Z,45.00
2023-04-25T01:42:17.830Z,61.60
2023-04-25T01:44:45.948Z,55.60
2023-04-25T01:47:14.107Z,45.30
2023-04-25T01:49:42.211Z,44.70
2023-04-25T01:52:10.365Z,44.80
2023-04-25T01:54:38.536Z,45.00
2023-04-25T01:57:08.013Z,44.90
2023-04-25T01:59:36.172Z,44.90
2023-04-25T02:02:05.150Z,44.90
2023-04-25T02:04:33.561Z,45.20
2023-04-25T02:07:01.820Z,44.80
2023-04-25T02:09:29.906Z,44.90
2023-04-25T02:11:58.023Z,44.80
2023-04-25T02:14:27.861Z,44.70
2023-04-25T02:16:56.093Z,44.80
2023-04-25T02:19:24.341Z,44.80
2023-04-25T02:21:52.459Z,44.70
2023-04-25T02:24:20.635Z,44.80
2023-04-25T02:26:50.328Z,44.80
2023-04-25T02:29:18.631Z,44.80
2023-04-25T02:31:48.219Z,44.80
2023-04-25T02:34:16.589Z,44.80
2023-04-25T02:36:44.718Z,44.70
2023-04-25T02:39:12.860Z,44.70
2023-04-25T02:41:40.981Z,44.70
2023-04-25T02:44:09.080Z,44.70
2023-04-25T02:46:39.454Z,44.70
2023-04-25T02:49:09.415Z,44.70
2023-04-25T02:51:37.761Z,44.70
2023-04-25T02:54:07.549Z,44.70
2023-04-25T02:56:35.710Z,44.70
2023-04-25T02:59:03.956Z,44.60
2023-04-25T03:01:32.100Z,44.60
2023-04-25T03:04:00.250Z,44.80
2023-04-25T03:06:29.822Z,44.80
2023-04-25T03:08:57.914Z,44.70
2023-04-25T03:11:27.909Z,44.70
2023-04-25T03:13:55.802Z,44.70
2023-04-25T03:16:24.390Z,45.30
2023-04-25T03:18:52.526Z,44.60
2023-04-25T03:21:20.744Z,44.60
2023-04-25T03:23:50.382Z,44.60
2023-04-25T03:26:18.655Z,44.70
2023-04-25T03:28:46.746Z,44.70
2023-04-25T03:31:14.877Z,44.60
2023-04-25T03:33:42.988Z,44.60
2023-04-25T03:36:11.706Z,44.50
2023-04-25T03:38:39.982Z,44.70
2023-04-25T03:41:09.920Z,44.70
2023-04-25T03:43:38.058Z,44.70
2023-04-25T03:46:06.376Z,44.60
2023-04-25T03:48:34.509Z,44.60
2023-04-25T03:51:03.858Z,44.60
2023-04-25T03:53:31.972Z,44.60
2023-04-25T03:56:00.146Z,44.60
2023-04-25T03:58:29.615Z,44.50
2023-04-25T04:00:57.731Z,44.60
2023-04-25T04:03:26.258Z,44.60
2023-04-25T04:05:54.539Z,44.60
2023-04-25T04:08:22.643Z,44.60
2023-04-25T04:10:50.762Z,44.60
2023-04-25T04:13:18.893Z,44.60
2023-04-25T04:15:48.453Z,44.60
2023-04-25T04:18:16.620Z,44.60
2023-04-25T04:20:44.728Z,44.60
2023-04-25T04:23:14.180Z,44.60
2023-04-25T04:25:42.897Z,44.50
2023-04-25T04:28:12.101Z,44.50
2023-04-25T04:30:40.321Z,44.60
2023-04-25T04:33:10.035Z,44.60
2023-04-25T04:35:38.205Z,44.60
2023-04-25T04:38:06.336Z,44.40
2023-04-25T04:40:34.672Z,44.50
2023-04-25T04:43:03.138Z,44.50
2023-04-25T04:45:31.265Z,44.50
2023-04-25T04:47:59.452Z,44.60
2023-04-25T04:50:29.338Z,44.50
2023-04-25T04:52:57.474Z,44.50
2023-04-25T04:55:25.784Z,44.60
2023-04-25T04:57:53.867Z,44.50
2023-04-25T05:00:22.933Z,44.50
2023-04-25T05:02:51.106Z,44.50
2023-04-25T05:05:19.432Z,44.40
2023-04-25T05:07:48.893Z,45.00
2023-04-25T05:10:17.042Z,45.40
2023-04-25T05:12:45.356Z,45.00
2023-04-25T05:15:13.910Z,44.60
2023-04-25T05:17:42.051Z,44.80
2023-04-25T05:20:11.009Z,45.50
2023-04-25T05:22:39.122Z,45.50
2023-04-25T05:25:09.522Z,46.00
2023-04-25T05:27:37.805Z,45.70
2023-04-25T05:30:07.281Z,46.20
2023-04-25T05:32:35.589Z,46.30
2023-04-25T05:35:03.946Z,46.70
2023-04-25T05:37:33.826Z,46.40
2023-04-25T05:40:02.086Z,46.70
2023-04-25T05:42:31.545Z,46.90
2023-04-25T05:44:59.676Z,46.80
2023-04-25T05:47:27.815Z,46.90
2023-04-25T05:49:56.114Z,47.00
2023-04-25T05:52:24.225Z,46.90
2023-04-25T05:54:52.375Z,47.10
2023-04-25T05:57:25.311Z,47.00
2023-04-25T05:59:55.332Z,47.00
2023-04-25T06:02:23.575Z,47.00
2023-04-25T06:04:52.856Z,46.90
2023-04-25T06:07:21.942Z,46.90
2023-04-25T06:09:50.269Z,46.80
2023-04-25T06:12:18.384Z,46.80
2023-04-25T06:14:46.509Z,46.70
2023-04-25T06:17:16.067Z,46.70
2023-04-25T06:19:44.198Z,47.20
2023-04-25T06:22:12.734Z,46.30
2023-04-25T06:24:40.850Z,46.30
2023-04-25T06:27:08.971Z,46.00
2023-04-25T06:29:37.121Z,45.90
2023-04-25T06:32:05.506Z,46.00
2023-04-25T06:34:35.014Z,45.60
2023-04-25T06:37:03.452Z,45.00
2023-04-25T06:39:31.716Z,43.90
2023-04-25T06:41:59.828Z,43.60
2023-04-25T06:44:30.397Z,43.30
2023-04-25T06:46:58.587Z,43.00
2023-04-25T06:49:26.861Z,42.70
2023-04-25T06:51:56.332Z,42.90
2023-04-25T06:54:25.904Z,43.40
2023-04-25T06:56:54.031Z,43.30
2023-04-25T06:59:22.140Z,42.70
2023-04-25T07:01:50.501Z,42.50
2023-04-25T07:04:18.894Z,41.40
2023-04-25T07:06:48.537Z,41.60
2023-04-25T07:09:18.057Z,41.90
2023-04-25T07:11:46.156Z,41.90
2023-04-25T07:14:14.278Z,41.20
2023-04-25T07:16:42.927Z,41.20
2023-04-25T07:19:11.121Z,41.00
2023-04-25T07:21:39.220Z,40.90
2023-04-25T07:24:08.236Z,41.10
2023-04-25T07:26:38.420Z,41.40
2023-04-25T07:29:07.123Z,41.20
2023-04-25T07:31:35.735Z,41.60
2023-04-25T07:34:03.907Z,41.10
2023-04-25T07:36:32.066Z,41.00
2023-04-25T07:39:00.229Z,40.90
2023-04-25T07:41:28.583Z,40.60
2023-04-25T07:43:58.173Z,40.70
2023-04-25T07:46:26.400Z,40.60
2023-04-25T07:48:54.617Z,40.50
2023-04-25T07:51:23.276Z,40.50
2023-04-25T07:53:51.729Z,40.30
2023-04-25T07:56:19.842Z,40.20
2023-04-25T07:58:47.971Z,39.90
2023-04-25T08:01:17.735Z,39.30
2023-04-25T08:03:46.047Z,39.80
2023-04-25T08:06:14.797Z,39.60
2023-04-25T08:08:43.085Z,39.30
2023-04-25T08:11:11.787Z,39.00
2023-04-25T08:13:39.885Z,38.80
2023-04-25T08:16:08.104Z,38.70
2023-04-25T08:18:37.588Z,38.60
2023-04-25T08:21:06.077Z,38.40
2023-04-25T08:23:34.316Z,38.10
2023-04-25T08:26:02.580Z,38.10
2023-04-25T08:28:30.691Z,38.00
2023-04-25T08:30:59.012Z,38.20
2023-04-25T08:33:27.282Z,38.30
2023-04-25T08:35:57.058Z,38.20
2023-04-25T08:38:25.236Z,38.10
2023-04-25T08:40:54.000Z,37.70
2023-04-25T08:43:22.573Z,37.70
2023-04-25T08:45:50.772Z,37.70
2023-04-25T08:48:20.650Z,37.60
2023-04-25T08:50:52.742Z,37.60
2023-04-25T08:53:28.465Z,37.30
2023-04-25T08:55:58.225Z,37.20
2023-04-25T08:58:26.594Z,36.90
2023-04-25T09:00:54.880Z,36.30
2023-04-25T09:03:23.219Z,36.30
2023-04-25T09:05:52.266Z,35.90
2023-04-25T09:08:20.404Z,35.50
2023-04-25T09:10:49.946Z,35.30
2023-04-25T09:13:27.308Z,35.40
2023-04-25T09:15:56.821Z,35.70
2023-04-25T09:18:29.929Z,36.20
2023-04-25T09:21:04.168Z,36.60
2023-04-25T09:23:42.296Z,37.10
2023-04-25T09:26:11.942Z,37.90
2023-04-25T09:28:40.127Z,38.30
2023-04-25T09:31:08.256Z,38.50
2023-04-25T09:33:37.344Z,38.80
2023-04-25T09:36:07.120Z,38.90
2023-04-25T09:38:42.646Z,39.20
2023-04-25T09:41:12.732Z,36.00
2023-04-25T09:43:41.555Z,33.00
2023-04-25T09:46:12.243Z,32.20
2023-04-25T09:48:41.372Z,32.70
2023-04-25T09:51:11.440Z,32.60
2023-04-25T09:53:41.640Z,32.60
2023-04-25T09:56:12.482Z,33.00
2023-04-25T09:58:42.678Z,35.70
2023-04-25T10:01:12.669Z,34.60
2023-04-25T10:03:42.805Z,34.00
2023-04-25T10:06:15.387Z,34.30
2023-04-25T10:08:44.137Z,34.40
2023-04-25T10:11:15.491Z,34.70
2023-04-25T10:13:44.984Z,34.90
2023-04-25T10:16:13.631Z,36.30
2023-04-25T10:18:41.743Z,35.50
2023-04-25T10:21:10.025Z,34.90
2023-04-25T10:23:39.292Z,33.00
2023-04-25T10:26:08.606Z,32.40
2023-04-25T10:28:59.708Z,32.50
2023-04-25T10:31:28.159Z,32.90
2023-04-25T10:33:56.478Z,33.20
2023-04-25T10:36:28.431Z,33.70
2023-04-25T10:38:56.555Z,34.00
2023-04-25T10:41:24.858Z,34.60
2023-04-25T10:44:03.394Z,35.00
2023-04-25T10:46:32.354Z,35.60
2023-04-25T10:49:01.976Z,36.00
2023-04-25T10:54:21.126Z,36.90
2023-04-25T10:56:51.146Z,37.80
2023-04-25T10:59:22.554Z,37.60
2023-04-25T11:01:55.697Z,35.30
2023-04-25T11:04:25.811Z,34.30
2023-04-25T11:09:53.489Z,34.60
2023-04-25T11:12:21.762Z,35.70
2023-04-25T11:14:37.885Z,34.40
2023-04-25T11:14:51.242Z,35.30
2023-04-25T11:17:19.442Z,34.40
2023-04-25T11:19:51.143Z,33.70
2023-04-25T11:22:19.542Z,33.30
2023-04-25T11:24:48.106Z,33.20
2023-04-25T11:27:16.481Z,33.10
2023-04-25T11:29:44.616Z,33.10
2023-04-25T11:32:14.179Z,33.40
2023-04-25T11:34:44.991Z,33.80
2023-04-25T11:37:14.482Z,34.20
2023-04-25T11:39:47.334Z,35.10
2023-04-25T11:42:15.636Z,36.30
2023-04-25T11:44:43.787Z,34.60
2023-04-25T11:47:13.396Z,33.30
2023-04-25T11:49:41.357Z,33.20
2023-04-25T11:52:09.821Z,33.50
2023-04-25T11:54:39.028Z,34.10
2023-04-25T11:57:07.701Z,34.50
2023-04-25T11:59:36.083Z,35.00
2023-04-25T12:02:04.186Z,35.30
2023-04-25T12:04:34.682Z,35.60
2023-04-25T12:07:03.631Z,33.30
2023-04-25T12:09:33.349Z,33.90
2023-04-25T12:12:03.963Z,34.90
2023-04-25T12:14:34.505Z,35.50
2023-04-25T12:17:05.028Z,35.80
2023-04-25T12:19:41.217Z,36.30
2023-04-25T12:22:22.229Z,36.60
2023-04-25T12:24:50.385Z,37.00
2023-04-25T12:27:20.315Z,37.00
2023-04-25T12:29:53.959Z,37.00
2023-04-25T12:32:22.258Z,37.10
2023-04-25T12:34:51.965Z,36.90
2023-04-25T12:37:19.899Z,36.40
2023-04-25T12:39:48.029Z,36.00
2023-04-25T12:42:16.327Z,36.00
2023-04-25T12:44:44.497Z,36.40
2023-04-25T12:47:12.886Z,36.50
2023-04-25T12:49:41.099Z,36.70
2023-04-25T12:52:10.990Z,36.90
2023-04-25T12:54:39.772Z,37.10
2023-04-25T12:57:08.039Z,36.10
2023-04-25T12:59:36.158Z,35.10
2023-04-25T13:02:04.338Z,33.80
2023-04-25T13:04:32.888Z,29.00
2023-04-25T13:07:01.070Z,28.20
2023-04-25T13:09:30.596Z,29.80
2023-04-25T13:11:59.336Z,31.20
2023-04-25T13:14:27.639Z,32.10
2023-04-25T13:16:55.986Z,32.60
2023-04-25T13:19:24.180Z,33.20
2023-04-25T13:21:52.357Z,33.40
2023-04-25T13:24:20.502Z,33.80
2023-04-25T13:26:50.089Z,34.10
2023-04-25T13:29:17.965Z,35.00
2023-04-25T13:31:46.100Z,35.10
2023-04-25T13:34:14.213Z,34.50
2023-04-25T13:36:42.487Z,28.50
2023-04-25T13:39:10.690Z,27.50
2023-04-25T13:41:38.814Z,29.80
2023-04-25T13:44:08.467Z,30.50
2023-04-25T13:49:12.956Z,31.10
2023-04-25T13:51:43.265Z,30.20
2023-04-25T13:54:11.638Z,30.20
2023-04-25T13:56:39.879Z,31.00
2023-04-25T13:59:09.769Z,30.70
2023-04-25T14:01:37.975Z,31.10
2023-04-25T14:04:06.295Z,30.40
2023-04-25T14:06:34.587Z,30.70
2023-04-25T14:09:03.000Z,30.60
2023-04-25T14:11:31.161Z,30.50
2023-04-25T14:13:59.300Z,30.30
2023-04-25T14:16:28.820Z,30.00
2023-04-25T14:18:57.234Z,29.50
2023-04-25T14:21:25.365Z,28.90
2023-04-25T14:23:54.054Z,25.70
2023-04-25T14:26:22.560Z,28.00
2023-04-25T14:28:50.681Z,30.40
2023-04-25T14:31:18.839Z,30.00
2023-04-25T14:33:48.461Z,29.00
2023-04-25T14:36:16.755Z,28.50
2023-04-25T14:38:44.867Z,28.60
2023-04-25T14:41:12.993Z,26.60
2023-04-25T14:43:42.323Z,26.00
2023-04-25T14:46:12.006Z,28.60
2023-04-25T14:48:41.035Z,29.70
2023-04-25T14:51:10.624Z,30.00
2023-04-25T14:53:38.678Z,30.50
2023-04-25T14:56:08.168Z,30.90
2023-04-25T14:58:36.135Z,31.30
2023-04-25T15:01:04.482Z,31.60
2023-04-25T15:03:33.152Z,31.80
2023-04-25T15:06:02.136Z,33.10
2023-04-25T15:08:31.643Z,31.90
2023-04-25T15:10:59.594Z,31.10
2023-04-25T15:13:28.826Z,30.10
2023-04-25T15:15:56.972Z,29.60
2023-04-25T15:18:25.899Z,29.10
2023-04-25T15:20:55.204Z,28.20
2023-04-25T15:23:23.617Z,28.40
2023-04-25T15:25:54.508Z,26.90
2023-04-25T15:28:22.892Z,29.10
2023-04-25T15:30:51.506Z,29.60
2023-04-25T15:33:19.614Z,26.30
2023-04-25T15:35:47.784Z,27.80
2023-04-25T15:38:15.934Z,28.20
2023-04-25T15:40:44.133Z,28.50
2023-04-25T15:43:16.217Z,28.70
2023-04-25T15:45:45.629Z,29.00
2023-04-25T15:48:13.995Z,29.30
2023-04-25T15:50:43.216Z,29.70
2023-04-25T15:53:11.671Z,30.00
2023-04-25T15:55:39.793Z,30.30
2023-04-25T15:58:09.410Z,30.50
2023-04-25T16:00:40.501Z,30.40
2023-04-25T16:03:09.555Z,30.70
2023-04-25T16:05:38.288Z,31.10
2023-04-25T16:08:06.561Z,31.50
2023-04-25T16:10:34.925Z,31.80
2023-04-25T16:13:03.881Z,32.10
2023-04-25T16:15:34.620Z,31.40
2023-04-25T16:18:05.249Z,32.20
2023-04-25T16:20:33.659Z,32.70
2023-04-25T16:23:01.772Z,32.80
2023-04-25T16:25:29.904Z,32.70
2023-04-25T16:27:58.077Z,32.60
2023-04-25T16:30:26.391Z,32.30
2023-04-25T16:32:57.098Z,32.30
2023-04-25T16:35:30.507Z,32.40
2023-04-25T16:37:58.699Z,32.40
2023-04-25T16:40:27.048Z,32.20
2023-04-25T16:42:55.182Z,32.10
2023-04-25T16:45:24.420Z,32.10
2023-04-25T16:47:52.576Z,32.30
2023-04-25T16:50:21.317Z,32.30
2023-04-25T16:52:51.690Z,32.40
2023-04-25T16:55:19.913Z,32.40
2023-04-25T16:57:48.120Z,32.40
2023-04-25T17:00:18.269Z,32.40
2023-04-25T17:02:47.375Z,32.60
2023-04-25T17:05:15.706Z,32.50
2023-04-25T17:07:43.864Z,32.50
2023-04-25T17:10:13.541Z,30.90
2023-04-25T17:12:41.695Z,31.60
2023-04-25T17:15:11.188Z,33.40
2023-04-25T17:17:39.137Z,34.20
2023-04-25T17:20:09.957Z,35.20
2023-04-25T17:22:38.649Z,34.60
2023-04-25T17:25:09.082Z,35.10
2023-04-25T17:27:38.764Z,35.10
2023-04-25T17:30:08.663Z,33.20
2023-04-25T17:32:36.845Z,30.00
2023-04-25T17:35:05.715Z,29.60
2023-04-25T17:37:33.921Z,30.40
2023-04-25T17:40:02.036Z,31.10
2023-04-25T17:42:30.549Z,31.50
2023-04-25T17:45:00.047Z,31.70
2023-04-25T17:47:28.415Z,31.80
2023-04-25T17:49:57.613Z,32.00
2023-04-25T17:52:26.441Z,32.10
2023-04-25T17:54:54.561Z,32.20
2023-04-25T17:57:24.314Z,32.30
2023-04-25T17:59:52.651Z,32.40
2023-04-25T18:02:22.519Z,32.60
2023-04-25T18:04:50.902Z,32.70
2023-04-25T18:07:19.108Z,32.90
2023-04-25T18:09:47.240Z,33.10
2023-04-25T18:12:18.034Z,33.30
2023-04-25T18:14:46.200Z,33.50
2023-04-25T18:17:15.055Z,33.70
2023-04-25T18:19:44.560Z,33.80
2023-04-25T18:22:12.987Z,34.10
2023-04-25T18:24:41.118Z,33.20
2023-04-25T18:27:09.248Z,33.50
2023-04-25T18:29:38.256Z,33.80
2023-04-25T18:32:07.042Z,34.10
2023-04-25T18:34:35.270Z,34.30
2023-04-25T18:37:04.795Z,34.50
2023-04-25T18:39:33.022Z,34.70
2023-04-25T18:42:06.452Z,34.90
2023-04-25T18:44:39.454Z,35.00
2023-04-25T18:47:07.828Z,35.20
2023-04-25T18:49:36.112Z,35.20
2023-04-25T18:52:05.735Z,35.30
2023-04-25T18:54:33.859Z,35.30
2023-04-25T18:57:01.972Z,35.30
2023-04-25T18:59:30.104Z,35.50
2023-04-25T19:01:58.337Z,35.50
2023-04-25T19:04:26.586Z,35.50
2023-04-25T19:06:54.824Z,35.50
2023-04-25T19:09:24.919Z,35.50
2023-04-25T19:11:53.159Z,35.60
2023-04-25T19:14:21.273Z,35.10
2023-04-25T19:19:17.868Z,46.90
2023-04-25T19:21:46.002Z,58.70
2023-04-25T19:26:44.113Z,36.70
2023-04-25T19:29:14.543Z,37.50
2023-04-25T19:34:13.022Z,38.20
2023-04-25T19:36:42.443Z,38.90
2023-04-25T19:39:10.955Z,39.10
2023-04-25T19:41:40.411Z,39.30
2023-04-25T19:44:10.957Z,39.30
2023-04-25T19:46:40.060Z,39.40
2023-04-25T19:49:08.351Z,39.30
2023-04-25T19:51:37.242Z,39.30
2023-04-25T19:54:05.899Z,39.30
2023-04-25T19:56:34.178Z,39.40
2023-04-25T19:59:02.417Z,39.30
2023-04-25T20:01:31.996Z,39.30
2023-04-25T20:04:00.183Z,39.10
2023-04-25T20:06:29.085Z,39.10
2023-04-25T20:08:57.460Z,39.10
2023-04-25T20:11:28.618Z,39.10
2023-04-25T20:13:57.448Z,39.10
2023-04-25T20:16:25.727Z,39.00
2023-04-25T20:18:55.503Z,39.00
2023-04-25T20:21:23.877Z,38.90
2023-04-25T20:23:52.089Z,39.00
2023-04-25T20:26:22.548Z,38.80
2023-04-25T20:28:51.371Z,38.80
2023-04-25T20:31:19.999Z,64.20
2023-04-25T20:33:48.866Z,39.10
2023-04-25T20:36:19.676Z,40.30
2023-04-25T20:38:48.065Z,40.90
2023-04-25T20:41:16.213Z,67.60
2023-04-25T20:43:44.513Z,40.60
2023-04-25T20:48:42.056Z,40.00
2023-04-25T20:51:10.359Z,40.90
2023-04-25T20:53:39.869Z,41.00
2023-04-25T20:56:07.991Z,45.10
2023-04-25T21:01:06.432Z,40.10
2023-04-25T21:03:35.670Z,40.70
2023-04-25T21:06:03.892Z,41.10
2023-04-25T21:08:32.107Z,41.20
2023-04-25T21:11:01.790Z,41.20
2023-04-25T21:13:29.927Z,41.10
2023-04-25T21:15:58.518Z,41.10
2023-04-25T21:18:27.746Z,40.90
2023-04-25T21:20:55.856Z,40.90
2023-04-25T21:23:24.217Z,40.80
2023-04-25T21:25:54.045Z,40.90
2023-04-25T21:28:23.785Z,40.80
2023-04-25T21:30:52.582Z,40.70
2023-04-25T21:33:20.862Z,40.70
2023-04-25T21:35:49.004Z,40.60
2023-04-25T21:38:17.309Z,40.60
2023-04-25T21:40:45.901Z,40.50
2023-04-25T21:43:14.158Z,40.50
2023-04-25T21:46:09.136Z,40.30
2023-04-25T21:48:31.823Z,40.30
2023-04-25T21:51:00.207Z,40.30
2023-04-25T21:53:28.329Z,40.30
2023-04-25T21:55:56.417Z,40.20
2023-04-25T21:58:24.857Z,40.20
2023-04-25T22:00:55.683Z,40.20
2023-04-25T22:03:23.951Z,40.10
2023-04-25T22:05:52.086Z,40.00
2023-04-25T22:08:20.776Z,40.00
2023-04-25T22:10:49.258Z,40.60
2023-04-25T22:13:17.386Z,39.30
2023-04-25T22:15:45.936Z,39.80
2023-04-25T22:18:16.372Z,39.80
2023-04-25T22:20:45.095Z,39.80
2023-04-25T22:23:13.229Z,39.80
2023-04-25T22:25:42.080Z,39.80
2023-04-25T22:28:10.783Z,39.70
2023-04-25T22:30:38.889Z,39.70
2023-04-25T22:33:07.139Z,39.60
2023-04-25T22:35:36.706Z,39.60
2023-04-25T22:38:05.082Z,39.60
2023-04-25T22:40:33.173Z,39.00
2023-04-25T22:43:01.316Z,39.50
2023-04-25T22:45:32.603Z,39.50
2023-04-25T22:48:01.000Z,45.80
2023-04-25T22:50:29.129Z,55.00
2023-04-25T22:52:58.637Z,51.30
2023-04-25T22:55:27.155Z,52.60
2023-04-25T22:57:55.277Z,39.80
2023-04-25T23:00:26.143Z,39.90
2023-04-25T23:02:55.097Z,40.00
2023-04-25T23:05:24.437Z,40.00
2023-04-25T23:07:52.552Z,39.80
2023-04-25T23:10:22.481Z,39.90
2023-04-25T23:12:50.391Z,39.80
2023-04-25T23:15:19.766Z,39.80
2023-04-25T23:17:47.965Z,39.80
2023-04-25T23:20:16.375Z,39.80
2023-04-25T23:22:44.489Z,39.80
2023-04-25T23:25:12.804Z,39.80
2023-04-25T23:27:43.090Z,39.70
2023-04-25T23:30:12.420Z,39.70
2023-04-25T23:32:40.612Z,39.70
2023-04-25T23:35:09.980Z,39.60
2023-04-25T23:37:38.707Z,39.50
2023-04-25T23:40:09.836Z,39.60
2023-04-25T23:42:38.696Z,39.60
2023-04-25T23:45:09.814Z,39.50
2023-04-25T23:47:38.554Z,39.50
2023-04-25T23:50:08.026Z,39.50
2023-04-25T23:52:36.158Z,39.50
2023-04-25T23:55:05.431Z,39.40
2023-04-25T23:57:33.638Z,39.40
